KCWA/CWA METAR and TAF weather

Enter ICAO airport designator
Station Type Date Time Source
KCWA METAR 2020/01/21 20:45 UTC NOAA

KCWA 212045Z 19014KT 10SM SCT250 M06/M12 A3029


Station Type Date Time Source
KCWA Decoded METAR 2020/01/21 20:45 UTC NOAA

Mosinee / Central Wisconsin, WI, United States (KCWA) 44-47N 089-40W
Jan 21, 2020 - 03:45 PM EST / 2020.01.21 2045 UTC
Wind: from the S (190 degrees) at 16 MPH (14 KT):0
Visibility: 10 mile(s):0
Sky conditions: partly cloudy
Temperature: 21 F (-6 C)
Windchill: 6 F (-14 C):1
Dew Point: 10 F (-12 C)
Relative Humidity: 62%
Pressure (altimeter): 30.29 in. Hg (1025 hPa)
ob: KCWA 212045Z 19014KT 10SM SCT250 M06/M12 A3029
cycle: 21

Station Type Date Time Source
KCWA TAF 2020/01/21 18:24 UTC NOAA

TAF KCWA 211723Z 2118/2218 22010G17KT P6SM SCT250
FM212300 21008KT P6SM SCT250
FM220300 21007G16KT P6SM BKN250 WS015/23045KT
FM221000 21008G17KT P6SM OVC025 WS015/23045KT
FM221600 21010G18KT 3SM -SN OVC010

Example: see airport list